Time;durP1;ratioP1;P1;durP2;ratioP2;P2;SDS_P1;SDS_P2;PMS_P1;PMS_P2;Temp;Humidity;BMP_temperature;BMP_pressure;BME280_temperature;BME280_humidity;BME280_pressure;Samples;Min_cycle;Max_cycle;Signal;HPM_P1;HPM_P2
2020/12/15 00:00:08;;;;;;;10.82;5.97;;;7.90;99.90;;;;;;5131129;27;20122;-82
2020/12/15 00:02:34;;;;;;;11.88;5.90;;;7.80;99.90;;;;;;5135051;27;20015;-82
2020/12/15 00:05:00;;;;;;;16.85;6.78;;;7.80;99.90;;;;;;5127365;27;20047;-82
2020/12/15 00:07:25;;;;;;;13.07;6.38;;;7.80;99.90;;;;;;5130951;27;20039;-82
2020/12/15 00:09:51;;;;;;;12.55;6.15;;;7.80;99.90;;;;;;5124683;27;20115;-82
2020/12/15 00:12:17;;;;;;;15.70;7.00;;;7.80;99.90;;;;;;5129636;27;20035;-81
2020/12/15 00:14:42;;;;;;;12.02;6.05;;;7.80;99.90;;;;;;5129940;27;20463;-82
2020/12/15 00:17:08;;;;;;;9.48;5.57;;;7.80;99.90;;;;;;5129315;27;20027;-82
2020/12/15 00:19:33;;;;;;;12.88;6.60;;;7.80;99.90;;;;;;5128248;27;20024;-81
2020/12/15 00:21:59;;;;;;;8.32;5.25;;;7.80;99.90;;;;;;5131207;27;20027;-82
2020/12/15 00:24:25;;;;;;;13.93;6.53;;;7.90;99.90;;;;;;5126992;27;20387;-82
2020/12/15 00:26:50;;;;;;;17.05;6.22;;;7.90;99.90;;;;;;5130540;27;20407;-82
2020/12/15 00:29:16;;;;;;;8.18;5.13;;;8.00;99.90;;;;;;5128753;27;20067;-82
2020/12/15 00:31:43;;;;;;;12.35;6.07;;;7.90;99.90;;;;;;5128972;27;20172;-82
2020/12/15 00:34:09;;;;;;;11.80;5.53;;;8.00;99.90;;;;;;5129003;27;20060;-82
2020/12/15 00:36:34;;;;;;;9.13;4.95;;;8.00;99.90;;;;;;5130225;27;20042;-82
2020/12/15 00:39:00;;;;;;;10.55;5.43;;;8.00;99.90;;;;;;5129960;27;20071;-81
2020/12/15 00:41:27;;;;;;;6.85;4.70;;;8.00;99.90;;;;;;5122852;27;20031;-82
2020/12/15 00:43:53;;;;;;;9.68;4.63;;;8.00;99.90;;;;;;5130940;27;20019;-82
2020/12/15 00:46:19;;;;;;;10.18;4.25;;;8.00;99.90;;;;;;5127531;27;20118;-81
2020/12/15 00:48:45;;;;;;;10.18;4.55;;;8.00;99.90;;;;;;5130724;27;20019;-81
2020/12/15 00:51:18;;;;;;;10.57;4.47;;;8.00;99.90;;;;;;5129411;27;20088;-82
2020/12/15 00:53:45;;;;;;;8.90;5.30;;;8.00;99.90;;;;;;5130537;27;20482;-81
2020/12/15 00:56:11;;;;;;;10.02;5.38;;;8.00;99.90;;;;;;5119045;27;20032;-82
2020/12/15 00:58:37;;;;;;;11.43;5.82;;;7.90;99.90;;;;;;5130799;27;20031;-82
2020/12/15 01:01:07;;;;;;;8.05;5.43;;;7.90;99.90;;;;;;5129152;27;20022;-81
2020/12/15 01:03:34;;;;;;;8.70;5.32;;;7.90;99.90;;;;;;5132018;27;20058;-82
2020/12/15 01:06:00;;;;;;;9.15;5.60;;;7.90;99.90;;;;;;5129900;27;20402;-82
2020/12/15 01:08:25;;;;;;;13.07;5.07;;;7.90;99.90;;;;;;5129532;27;20039;-82
2020/12/15 01:10:54;;;;;;;11.18;5.53;;;7.90;99.90;;;;;;5128064;27;20106;-82
2020/12/15 01:13:20;;;;;;;7.20;4.40;;;7.90;99.90;;;;;;5131566;27;20106;-82
2020/12/15 01:15:46;;;;;;;10.73;4.95;;;7.90;99.90;;;;;;5121999;27;20088;-82
2020/12/15 01:18:11;;;;;;;11.65;5.63;;;7.90;99.90;;;;;;5129719;27;20031;-82
2020/12/15 01:20:37;;;;;;;13.43;6.05;;;7.90;99.90;;;;;;5129571;27;20032;-82
2020/12/15 01:23:03;;;;;;;8.95;5.32;;;7.90;99.90;;;;;;5129995;27;20126;-82
2020/12/15 01:25:29;;;;;;;16.48;5.60;;;7.80;99.90;;;;;;5124673;27;20062;-82
2020/12/15 01:27:55;;;;;;;14.48;7.57;;;7.80;99.90;;;;;;5128888;27;20065;-81
2020/12/15 01:30:20;;;;;;;13.15;6.13;;;7.80;99.90;;;;;;5124266;27;20052;-82
2020/12/15 01:32:46;;;;;;;10.65;5.70;;;7.80;99.90;;;;;;5129893;27;20019;-82
2020/12/15 01:35:12;;;;;;;9.45;5.70;;;7.80;99.90;;;;;;5129054;27;20023;-82
2020/12/15 01:37:37;;;;;;;8.93;5.20;;;7.90;99.90;;;;;;5129935;27;20375;-82
2020/12/15 01:42:48;;;;;;;10.15;5.43;;;7.80;99.90;;;;;;5124537;27;20169;-82
2020/12/15 01:45:14;;;;;;;9.45;5.80;;;7.80;99.90;;;;;;5123256;27;20059;-82
2020/12/15 01:47:41;;;;;;;12.55;6.10;;;7.80;99.90;;;;;;5128870;27;20104;-82
2020/12/15 01:50:07;;;;;;;15.75;6.15;;;7.70;99.90;;;;;;5126994;27;20034;-82
2020/12/15 01:52:33;;;;;;;15.15;6.40;;;7.70;99.90;;;;;;5129225;27;20031;-82
2020/12/15 01:54:59;;;;;;;12.35;6.93;;;7.80;99.90;;;;;;5129227;27;20030;-81
2020/12/15 01:57:25;;;;;;;20.20;7.10;;;7.70;99.90;;;;;;5120706;27;20038;-82
2020/12/15 01:59:51;;;;;;;14.02;6.43;;;7.70;99.90;;;;;;5124211;27;20032;-82
2020/12/15 02:02:19;;;;;;;12.57;6.10;;;7.70;99.90;;;;;;5130903;27;20031;-82
2020/12/15 02:04:46;;;;;;;17.23;6.00;;;7.70;99.90;;;;;;5131658;27;20038;-82
2020/12/15 02:07:11;;;;;;;11.23;6.35;;;7.70;99.90;;;;;;5134241;27;20061;-82
2020/12/15 02:09:37;;;;;;;11.88;6.53;;;7.70;99.90;;;;;;5130450;27;20463;-82
2020/12/15 02:12:03;;;;;;;14.48;6.57;;;7.70;99.90;;;;;;5131485;27;20031;-82
2020/12/15 02:14:29;;;;;;;16.67;7.03;;;7.70;99.90;;;;;;5130499;27;20505;-82
2020/12/15 02:16:54;;;;;;;14.88;6.40;;;7.70;99.90;;;;;;5121331;27;20034;-82
2020/12/15 02:19:20;;;;;;;14.75;7.20;;;7.70;99.90;;;;;;5127365;27;20084;-82
2020/12/15 02:22:01;;;;;;;14.15;6.80;;;7.60;99.90;;;;;;5126967;27;20456;-82
2020/12/15 02:24:28;;;;;;;16.08;6.85;;;7.70;99.90;;;;;;5122926;27;20019;-81
2020/12/15 02:26:54;;;;;;;12.57;6.57;;;7.70;99.90;;;;;;5128739;27;20533;-82
2020/12/15 02:29:19;;;;;;;16.90;6.80;;;7.70;99.90;;;;;;5128894;27;20023;-82
2020/12/15 02:31:45;;;;;;;10.07;6.35;;;7.60;99.90;;;;;;5128983;27;20460;-82
2020/12/15 02:34:11;;;;;;;10.20;6.10;;;7.70;99.90;;;;;;5128435;27;20027;-81
2020/12/15 02:36:42;;;;;;;9.70;6.13;;;7.70;99.90;;;;;;5130458;27;20056;-82
2020/12/15 02:39:10;;;;;;;13.38;6.90;;;7.60;99.90;;;;;;5128429;27;20383;-82
2020/12/15 02:41:37;;;;;;;14.05;6.70;;;7.60;99.90;;;;;;5128072;27;20383;-82
2020/12/15 02:44:04;;;;;;;15.50;6.63;;;7.60;99.90;;;;;;5128306;27;20019;-82
2020/12/15 02:46:30;;;;;;;13.02;6.82;;;7.70;99.90;;;;;;5117644;27;20133;-82
2020/12/15 02:48:56;;;;;;;15.18;6.55;;;7.60;99.90;;;;;;5129223;28;20102;-82
2020/12/15 02:51:23;;;;;;;11.75;6.53;;;7.50;99.90;;;;;;5123694;27;20027;-82
2020/12/15 02:53:49;;;;;;;10.52;6.95;;;7.60;99.90;;;;;;5129973;27;20011;-82
2020/12/15 02:56:32;;;;;;;13.85;8.10;;;7.60;99.90;;;;;;5125068;28;20117;-82
2020/12/15 02:58:58;;;;;;;9.73;6.35;;;7.60;99.90;;;;;;5128213;28;20030;-82
2020/12/15 03:01:24;;;;;;;10.18;6.65;;;7.60;99.90;;;;;;5122900;28;20023;-82
2020/12/15 03:03:49;;;;;;;9.77;6.68;;;7.60;99.90;;;;;;5129479;28;20352;-82
2020/12/15 03:06:15;;;;;;;12.40;7.10;;;7.60;99.90;;;;;;5129736;27;20061;-82
2020/12/15 03:08:41;;;;;;;14.65;6.32;;;7.60;99.90;;;;;;5131988;27;20051;-82
2020/12/15 03:11:06;;;;;;;12.52;7.22;;;7.50;99.90;;;;;;5128058;27;20435;-82
2020/12/15 03:13:33;;;;;;;11.45;6.95;;;7.50;99.90;;;;;;5131598;27;20019;-82
2020/12/15 03:15:58;;;;;;;13.25;7.32;;;7.50;99.90;;;;;;5127191;27;20631;-82
2020/12/15 03:18:24;;;;;;;11.25;6.82;;;7.50;99.90;;;;;;5131110;27;20076;-82
2020/12/15 03:20:52;;;;;;;14.02;6.80;;;7.50;99.90;;;;;;5135861;27;20027;-82
2020/12/15 03:23:20;;;;;;;13.18;7.75;;;7.50;99.90;;;;;;5136257;27;20422;-82
2020/12/15 03:25:45;;;;;;;15.10;7.88;;;7.50;99.90;;;;;;5135330;27;20067;-82
2020/12/15 03:28:11;;;;;;;19.45;8.07;;;7.60;99.90;;;;;;5135678;27;20374;-82
2020/12/15 03:30:37;;;;;;;11.23;6.82;;;7.60;99.90;;;;;;5134837;27;20018;-82
2020/12/15 03:33:03;;;;;;;10.38;6.32;;;7.60;99.90;;;;;;5135372;27;20034;-82
2020/12/15 03:35:31;;;;;;;11.80;7.03;;;7.60;99.90;;;;;;5134344;27;20014;-82
2020/12/15 03:37:57;;;;;;;12.23;7.40;;;7.60;99.90;;;;;;5154245;27;20514;-82
2020/12/15 03:40:23;;;;;;;10.20;6.65;;;7.40;99.90;;;;;;5147786;27;20122;-82
2020/12/15 03:42:49;;;;;;;17.67;7.75;;;7.40;99.90;;;;;;5134677;27;20037;-81
2020/12/15 03:45:15;;;;;;;15.05;7.30;;;7.50;99.90;;;;;;5150394;27;20126;-82
2020/12/15 03:47:42;;;;;;;12.65;8.20;;;7.40;99.90;;;;;;5132519;27;20060;-82
2020/12/15 03:50:11;;;;;;;15.90;7.50;;;7.40;99.90;;;;;;5130554;27;20382;-82
2020/12/15 03:52:37;;;;;;;11.30;7.70;;;7.50;99.90;;;;;;5135326;27;20030;-82
2020/12/15 03:55:04;;;;;;;15.70;7.93;;;7.50;99.90;;;;;;5134552;27;20372;-82
2020/12/15 03:57:30;;;;;;;15.30;7.68;;;7.50;99.90;;;;;;5135317;27;20030;-82
2020/12/15 03:59:56;;;;;;;14.88;7.80;;;7.50;99.90;;;;;;5128725;27;20398;-82
2020/12/15 04:02:21;;;;;;;14.75;8.20;;;7.50;99.90;;;;;;5130020;27;20030;-82
2020/12/15 04:04:47;;;;;;;11.57;7.45;;;7.50;99.90;;;;;;5142832;27;20015;-82
2020/12/15 04:07:13;;;;;;;15.90;7.97;;;7.50;99.90;;;;;;5125086;27;20043;-82
2020/12/15 04:09:38;;;;;;;12.75;8.13;;;7.50;99.90;;;;;;5151319;27;20050;-82
2020/12/15 04:12:05;;;;;;;17.85;9.30;;;7.50;99.90;;;;;;5134890;27;20034;-82
2020/12/15 04:14:31;;;;;;;28.40;8.65;;;7.40;99.90;;;;;;5130541;27;20027;-82
2020/12/15 04:16:56;;;;;;;15.30;7.85;;;7.40;99.90;;;;;;5131419;27;20034;-82
2020/12/15 04:19:22;;;;;;;15.48;8.57;;;7.40;99.90;;;;;;5133925;27;20019;-82
2020/12/15 04:21:48;;;;;;;16.13;9.13;;;7.40;99.90;;;;;;5152990;27;20064;-82
2020/12/15 04:24:13;;;;;;;13.18;8.90;;;7.40;99.90;;;;;;5132503;27;20023;-82
2020/12/15 04:26:39;;;;;;;17.65;9.77;;;7.40;99.90;;;;;;5134601;27;20034;-81
2020/12/15 04:29:05;;;;;;;15.65;8.43;;;7.40;99.90;;;;;;5134806;27;20118;-82
2020/12/15 04:31:30;;;;;;;11.98;8.23;;;7.30;99.90;;;;;;5134063;27;20179;-82
2020/12/15 04:33:56;;;;;;;20.65;8.88;;;7.30;99.90;;;;;;5129617;27;20033;-82
2020/12/15 04:36:22;;;;;;;14.25;9.18;;;7.30;99.90;;;;;;5133980;27;20062;-82
2020/12/15 04:38:48;;;;;;;16.55;8.75;;;7.30;99.90;;;;;;5134141;27;20104;-82
2020/12/15 04:41:14;;;;;;;17.63;9.10;;;7.30;99.90;;;;;;5133480;27;20112;-82
2020/12/15 04:43:41;;;;;;;19.15;9.95;;;7.30;99.90;;;;;;5134171;27;20019;-82
2020/12/15 04:46:10;;;;;;;14.35;9.57;;;7.30;99.90;;;;;;5133615;27;20097;-82
2020/12/15 04:48:43;;;;;;;14.73;9.23;;;7.30;99.90;;;;;;5133702;27;20026;-81
2020/12/15 04:51:12;;;;;;;17.92;10.93;;;7.30;99.90;;;;;;5133245;27;20031;-82
2020/12/15 04:53:44;;;;;;;19.40;10.63;;;7.30;99.90;;;;;;5134011;27;20023;-82
2020/12/15 04:56:30;;;;;;;16.10;9.45;;;7.30;99.90;;;;;;5151738;27;20018;-82
2020/12/15 04:58:57;;;;;;;15.75;9.50;;;7.30;99.90;;;;;;5152583;27;20514;-82
2020/12/15 05:01:24;;;;;;;14.45;8.90;;;7.30;99.90;;;;;;5131145;27;20038;-82
2020/12/15 05:03:52;;;;;;;17.90;10.05;;;7.30;99.90;;;;;;5145693;27;20045;-82
2020/12/15 05:06:27;;;;;;;17.98;10.48;;;7.30;99.90;;;;;;5132568;27;20121;-82
2020/12/15 05:08:53;;;;;;;12.70;8.52;;;7.30;99.90;;;;;;5129729;27;20025;-82
2020/12/15 05:11:19;;;;;;;18.08;9.70;;;7.30;99.90;;;;;;5128684;27;20070;-82
2020/12/15 05:13:45;;;;;;;15.13;9.82;;;7.40;99.90;;;;;;5112532;27;20123;-82
2020/12/15 05:16:11;;;;;;;18.42;10.23;;;7.40;99.90;;;;;;5132530;27;20446;-82
2020/12/15 05:18:36;;;;;;;15.23;8.65;;;7.30;99.90;;;;;;5131286;27;20046;-82
2020/12/15 05:21:13;;;;;;;18.30;9.63;;;7.30;99.90;;;;;;5120496;27;20490;-82
2020/12/15 05:23:54;;;;;;;17.88;9.55;;;7.30;99.90;;;;;;5134237;27;20447;-82
2020/12/15 05:26:26;;;;;;;20.23;9.35;;;7.40;99.90;;;;;;5132579;27;20041;-82
2020/12/15 05:29:07;;;;;;;20.63;9.25;;;7.40;99.90;;;;;;5128564;27;20023;-82
2020/12/15 05:31:38;;;;;;;19.60;9.43;;;7.40;99.90;;;;;;5126238;27;20079;-82
2020/12/15 05:34:05;;;;;;;16.63;10.05;;;7.40;99.90;;;;;;5128246;27;20035;-82
2020/12/15 05:36:31;;;;;;;17.70;9.05;;;7.40;99.90;;;;;;5131322;27;20079;-82
2020/12/15 05:39:05;;;;;;;15.80;8.80;;;7.40;99.90;;;;;;5150045;27;20015;-82
2020/12/15 05:41:33;;;;;;;14.93;8.63;;;7.50;99.90;;;;;;5124386;27;20030;-82
2020/12/15 05:44:00;;;;;;;13.73;9.27;;;7.50;99.90;;;;;;5131568;27;20116;-82
2020/12/15 05:46:30;;;;;;;15.35;10.07;;;7.50;99.90;;;;;;5130799;27;20038;-82
2020/12/15 05:49:04;;;;;;;15.23;9.37;;;7.50;99.90;;;;;;5150368;27;20026;-82
2020/12/15 05:51:42;;;;;;;22.25;9.68;;;7.50;99.90;;;;;;5131636;27;20274;-83
2020/12/15 05:54:13;;;;;;;16.63;9.35;;;7.60;99.90;;;;;;5127382;27;20038;-82
2020/12/15 05:56:40;;;;;;;14.10;8.73;;;7.60;99.90;;;;;;5121611;27;20136;-82
2020/12/15 05:59:21;;;;;;;15.30;8.98;;;7.70;99.90;;;;;;5152648;27;20073;-83
2020/12/15 06:01:51;;;;;;;19.45;10.40;;;7.70;99.90;;;;;;5127777;27;20025;-81
2020/12/15 06:04:20;;;;;;;19.05;10.18;;;7.70;99.90;;;;;;5127081;27;20045;-81
2020/12/15 06:06:47;;;;;;;19.40;9.10;;;7.60;99.90;;;;;;5147131;27;20047;-82
2020/12/15 06:09:16;;;;;;;18.40;9.60;;;7.70;99.90;;;;;;5142137;27;20033;-83
2020/12/15 06:11:45;;;;;;;19.73;10.63;;;7.70;99.90;;;;;;5100814;28;20035;-82
2020/12/15 06:14:12;;;;;;;20.08;11.05;;;7.70;99.90;;;;;;5103237;28;20906;-82
2020/12/15 06:16:40;;;;;;;14.50;9.48;;;7.70;99.90;;;;;;5084322;28;20043;-80
2020/12/15 06:19:10;;;;;;;13.15;8.93;;;7.70;99.90;;;;;;5067931;28;20042;-82
2020/12/15 06:21:48;;;;;;;14.70;8.77;;;7.80;99.90;;;;;;5078872;28;20084;-82
2020/12/15 06:24:23;;;;;;;14.70;8.85;;;7.80;99.90;;;;;;5088079;28;20392;-82
2020/12/15 06:26:54;;;;;;;13.52;9.50;;;7.80;99.90;;;;;;5086597;28;20039;-82
2020/12/15 06:29:33;;;;;;;13.40;9.60;;;7.80;99.90;;;;;;5087021;28;20032;-82
2020/12/15 06:32:01;;;;;;;17.08;8.95;;;7.90;99.90;;;;;;5078920;28;20055;-82
2020/12/15 06:34:31;;;;;;;13.43;8.38;;;7.90;99.90;;;;;;5104092;28;20439;-82
2020/12/15 06:36:58;;;;;;;15.88;10.23;;;7.90;99.90;;;;;;5079483;28;20545;-82
2020/12/15 06:39:27;;;;;;;14.65;9.13;;;7.90;99.90;;;;;;5089352;28;20038;-82
2020/12/15 06:41:58;;;;;;;14.98;9.27;;;7.80;99.90;;;;;;5091027;28;20043;-83
2020/12/15 06:44:35;;;;;;;23.45;10.27;;;7.90;99.90;;;;;;5122194;27;20035;-83
2020/12/15 06:47:05;;;;;;;25.10;11.07;;;8.00;99.90;;;;;;5122625;27;20042;-83
2020/12/15 06:49:33;;;;;;;17.08;10.48;;;8.00;99.90;;;;;;5115931;27;20054;-83
2020/12/15 06:52:03;;;;;;;18.75;10.18;;;7.90;99.90;;;;;;5140816;27;20019;-82
2020/12/15 06:54:30;;;;;;;18.05;10.23;;;8.00;99.90;;;;;;5121470;27;20468;-83
2020/12/15 06:57:12;;;;;;;21.77;10.20;;;8.00;99.90;;;;;;5139590;27;20030;-83
2020/12/15 06:59:40;;;;;;;15.95;9.93;;;8.00;99.90;;;;;;5124197;27;20033;-83
2020/12/15 07:02:13;;;;;;;18.85;10.68;;;8.00;99.90;;;;;;5122042;27;20079;-83
2020/12/15 07:04:44;;;;;;;33.25;16.98;;;7.90;99.90;;;;;;5120836;27;20023;-83
2020/12/15 07:07:10;;;;;;;21.98;11.93;;;7.90;99.90;;;;;;5122713;27;20491;-83
2020/12/15 07:09:36;;;;;;;26.17;10.27;;;7.90;99.90;;;;;;5130699;27;20031;-83
2020/12/15 07:12:04;;;;;;;20.88;12.18;;;8.00;99.90;;;;;;5122101;27;20027;-83
2020/12/15 07:14:29;;;;;;;19.38;11.30;;;7.90;99.90;;;;;;5125418;27;20371;-82
2020/12/15 07:16:55;;;;;;;19.58;11.02;;;7.90;99.90;;;;;;5126483;27;20031;-82
2020/12/15 07:19:25;;;;;;;21.60;12.25;;;7.90;99.90;;;;;;5123556;27;20098;-83
2020/12/15 07:21:50;;;;;;;21.10;12.50;;;7.90;99.90;;;;;;5123695;27;20035;-82
2020/12/15 07:24:16;;;;;;;22.02;11.65;;;7.90;99.90;;;;;;5120949;27;20093;-82
2020/12/15 07:26:43;;;;;;;19.92;12.40;;;7.90;99.90;;;;;;5122088;27;20042;-82
2020/12/15 07:29:09;;;;;;;29.88;13.77;;;7.90;99.90;;;;;;5119279;27;20567;-82
2020/12/15 07:31:36;;;;;;;24.35;12.05;;;7.90;99.90;;;;;;5119328;27;20106;-82
2020/12/15 07:34:13;;;;;;;22.40;13.38;;;7.90;99.90;;;;;;5141943;27;20046;-83
2020/12/15 07:36:42;;;;;;;22.83;12.30;;;7.90;99.90;;;;;;5129252;27;20023;-83
2020/12/15 07:39:10;;;;;;;21.23;12.43;;;7.80;99.90;;;;;;5106923;28;20054;-83
2020/12/15 07:41:36;;;;;;;29.75;14.25;;;7.90;99.90;;;;;;5113412;27;20032;-83
2020/12/15 07:44:10;;;;;;;25.45;12.48;;;7.90;99.90;;;;;;5121298;27;20045;-84
2020/12/15 07:46:42;;;;;;;28.75;12.82;;;7.90;99.90;;;;;;5126838;27;20053;-82
2020/12/15 07:49:09;;;;;;;26.73;13.25;;;7.90;99.90;;;;;;5121175;27;20049;-83
2020/12/15 07:51:37;;;;;;;22.33;11.85;;;7.90;99.90;;;;;;5123838;27;20035;-83
2020/12/15 07:54:03;;;;;;;26.08;13.73;;;7.90;99.90;;;;;;5109292;28;20028;-83
2020/12/15 07:56:29;;;;;;;26.05;12.73;;;7.90;99.90;;;;;;5111416;28;20425;-83
2020/12/15 07:58:55;;;;;;;21.15;13.10;;;7.90;99.90;;;;;;5122498;27;20047;-83
2020/12/15 08:01:27;;;;;;;26.85;12.90;;;7.90;99.90;;;;;;5115279;28;20858;-83
2020/12/15 08:04:04;;;;;;;23.00;14.10;;;7.90;99.90;;;;;;5120716;27;20022;-83
2020/12/15 08:06:32;;;;;;;22.20;12.93;;;7.90;99.90;;;;;;5121661;27;20411;-83
2020/12/15 08:08:59;;;;;;;28.27;13.45;;;7.90;99.90;;;;;;5125159;27;20019;-82
2020/12/15 08:11:25;;;;;;;18.77;11.73;;;7.90;99.90;;;;;;5123030;27;20499;-82
2020/12/15 08:13:52;;;;;;;30.45;13.52;;;7.90;99.90;;;;;;5125236;27;20031;-83
2020/12/15 08:16:18;;;;;;;27.75;12.82;;;8.00;99.90;;;;;;5125056;27;20157;-83
2020/12/15 08:18:48;;;;;;;19.02;12.35;;;7.90;99.90;;;;;;5121129;27;20129;-83
2020/12/15 08:21:16;;;;;;;21.33;12.48;;;8.00;99.90;;;;;;5123023;27;20019;-83
2020/12/15 08:23:52;;;;;;;22.05;12.15;;;8.10;99.90;;;;;;5138885;27;20068;-83
2020/12/15 08:26:20;;;;;;;17.77;11.38;;;8.10;99.90;;;;;;5137375;27;20070;-83
2020/12/15 08:28:46;;;;;;;21.73;13.18;;;8.10;99.90;;;;;;5136921;27;20037;-84
2020/12/15 08:31:12;;;;;;;15.82;10.95;;;8.20;99.90;;;;;;5135183;27;20501;-83
2020/12/15 08:33:39;;;;;;;28.33;16.55;;;8.20;99.90;;;;;;5122828;27;20102;-83
2020/12/15 08:36:09;;;;;;;40.03;19.35;;;8.20;99.90;;;;;;5123920;27;20148;-86
2020/12/15 08:38:40;;;;;;;22.30;12.43;;;8.20;99.90;;;;;;5123926;27;20033;-84
2020/12/15 08:41:05;;;;;;;21.00;11.77;;;8.20;99.90;;;;;;5138130;27;20048;-84
2020/12/15 08:43:32;;;;;;;27.05;12.07;;;8.20;99.90;;;;;;5120792;27;20110;-84
2020/12/15 08:45:58;;;;;;;17.92;12.15;;;8.20;99.90;;;;;;5118219;27;20075;-84
2020/12/15 08:48:24;;;;;;;28.17;12.68;;;8.20;99.90;;;;;;5115739;27;20106;-83
2020/12/15 08:50:51;;;;;;;37.80;16.70;;;8.30;99.90;;;;;;5120369;27;20034;-84
2020/12/15 08:53:18;;;;;;;21.27;11.85;;;8.30;99.90;;;;;;5120095;27;20026;-83
2020/12/15 08:55:48;;;;;;;21.88;12.13;;;8.40;99.90;;;;;;5121250;27;20019;-83
2020/12/15 08:58:15;;;;;;;19.58;11.95;;;8.40;99.90;;;;;;5118939;27;20040;-83
2020/12/15 09:00:43;;;;;;;18.17;10.93;;;8.40;99.90;;;;;;5128933;27;20485;-83
2020/12/15 09:03:10;;;;;;;23.83;14.05;;;8.50;99.90;;;;;;5119535;27;20038;-84
2020/12/15 09:05:51;;;;;;;26.13;13.75;;;8.40;99.90;;;;;;5121033;27;20023;-84
2020/12/15 09:08:18;;;;;;;19.08;12.52;;;8.50;99.90;;;;;;5120964;27;20100;-83
2020/12/15 09:10:44;;;;;;;20.02;12.18;;;8.50;99.90;;;;;;5119610;27;20328;-83
2020/12/15 09:13:10;;;;;;;25.20;10.65;;;8.50;99.90;;;;;;5123086;27;20102;-84
2020/12/15 09:15:49;;;;;;;20.95;11.23;;;8.60;99.90;;;;;;5110424;27;20440;-84
2020/12/15 09:18:15;;;;;;;19.95;11.27;;;8.60;99.90;;;;;;5120231;27;20066;-83
2020/12/15 09:20:42;;;;;;;20.08;12.23;;;8.70;99.90;;;;;;5120328;27;20018;-83
2020/12/15 09:23:10;;;;;;;24.67;12.05;;;8.70;99.90;;;;;;5120590;27;20044;-83
2020/12/15 09:25:36;;;;;;;20.60;11.23;;;8.80;99.90;;;;;;5119450;27;20023;-83
2020/12/15 09:28:02;;;;;;;20.83;10.73;;;8.80;99.90;;;;;;5102881;27;20339;-82
2020/12/15 09:30:28;;;;;;;16.95;10.43;;;8.90;99.90;;;;;;5100425;27;20045;-83
2020/12/15 09:32:53;;;;;;;21.23;11.32;;;9.00;99.90;;;;;;5112724;27;20039;-83
2020/12/15 09:35:19;;;;;;;19.23;10.05;;;9.00;99.90;;;;;;5129602;27;20098;-83
2020/12/15 09:37:45;;;;;;;25.48;11.07;;;9.10;99.90;;;;;;5126661;27;20066;-83
2020/12/15 09:40:13;;;;;;;19.15;12.43;;;9.10;99.90;;;;;;5117734;27;20037;-83
2020/12/15 09:42:45;;;;;;;29.13;12.40;;;9.10;99.90;;;;;;5113820;27;20506;-83
2020/12/15 09:45:11;;;;;;;22.52;10.65;;;9.10;99.90;;;;;;5104646;27;20030;-84
2020/12/15 09:47:41;;;;;;;21.42;11.57;;;9.10;99.90;;;;;;5117808;27;20114;-83
2020/12/15 09:50:08;;;;;;;18.83;11.43;;;9.10;99.90;;;;;;5107418;27;20189;-82
2020/12/15 09:52:33;;;;;;;16.50;11.05;;;9.10;99.90;;;;;;5136094;27;20074;-82
2020/12/15 09:54:59;;;;;;;17.73;10.48;;;9.10;99.90;;;;;;5130503;27;20031;-82
2020/12/15 09:57:25;;;;;;;18.40;10.95;;;9.20;99.90;;;;;;5114072;27;20037;-84
2020/12/15 09:59:50;;;;;;;25.60;10.43;;;9.20;99.90;;;;;;5116891;27;20042;-83
2020/12/15 10:02:16;;;;;;;28.92;10.98;;;9.20;99.90;;;;;;5117011;27;20053;-83
2020/12/15 10:04:42;;;;;;;24.33;10.88;;;9.10;99.90;;;;;;5132101;27;20091;-84
2020/12/15 10:07:08;;;;;;;20.63;11.55;;;9.30;99.90;;;;;;5117209;27;20055;-82
2020/12/15 10:09:33;;;;;;;19.23;12.20;;;9.40;99.90;;;;;;5118682;27;20149;-82
2020/12/15 10:12:00;;;;;;;17.35;10.65;;;9.30;99.90;;;;;;5116924;27;20042;-82
2020/12/15 10:14:25;;;;;;;19.13;12.00;;;9.40;99.90;;;;;;5119095;27;20359;-82
2020/12/15 10:16:51;;;;;;;15.35;10.70;;;9.40;99.90;;;;;;5114786;27;20020;-83
2020/12/15 10:19:17;;;;;;;17.48;11.73;;;9.50;99.90;;;;;;5118674;27;20381;-83
2020/12/15 10:21:43;;;;;;;17.30;10.70;;;9.40;99.90;;;;;;5113693;27;20127;-82
2020/12/15 10:24:09;;;;;;;16.58;10.85;;;9.50;99.90;;;;;;5111165;27;20110;-83
2020/12/15 10:26:35;;;;;;;24.27;11.63;;;9.50;99.90;;;;;;5098297;27;20148;-85
2020/12/15 10:29:01;;;;;;;17.30;10.50;;;9.50;99.90;;;;;;5132591;27;20027;-81
2020/12/15 10:31:28;;;;;;;22.73;11.50;;;9.50;99.90;;;;;;5114299;27;20065;-82
2020/12/15 10:33:53;;;;;;;19.52;11.20;;;9.60;99.90;;;;;;5136699;27;20030;-82
2020/12/15 10:36:19;;;;;;;20.33;12.18;;;9.50;99.90;;;;;;5118317;27;20030;-83
2020/12/15 10:38:45;;;;;;;19.17;10.85;;;9.50;99.90;;;;;;5139215;27;20509;-84
2020/12/15 10:41:11;;;;;;;18.70;11.77;;;9.60;99.90;;;;;;5145243;27;20075;-81
2020/12/15 10:43:37;;;;;;;23.02;11.38;;;9.60;99.90;;;;;;5112907;27;20439;-81
2020/12/15 10:46:03;;;;;;;19.45;11.38;;;9.60;99.90;;;;;;5106869;27;20768;-82
2020/12/15 10:48:29;;;;;;;23.13;11.43;;;9.60;99.90;;;;;;5111188;27;20487;-84
2020/12/15 10:50:55;;;;;;;18.95;11.73;;;9.60;99.90;;;;;;5133590;27;20107;-82
2020/12/15 10:53:21;;;;;;;33.08;13.48;;;9.70;99.90;;;;;;5111337;27;20028;-83
2020/12/15 10:55:51;;;;;;;25.67;13.05;;;9.60;99.90;;;;;;5112506;27;20062;-82
2020/12/15 10:58:17;;;;;;;25.00;11.85;;;9.70;99.90;;;;;;5112179;27;20052;-82
2020/12/15 11:00:43;;;;;;;20.58;11.38;;;9.70;99.90;;;;;;5131057;27;20447;-83
2020/12/15 11:03:08;;;;;;;16.27;10.85;;;9.80;99.90;;;;;;5115481;27;20038;-83
2020/12/15 11:05:34;;;;;;;17.92;11.15;;;9.80;99.90;;;;;;5132353;27;20031;-83
2020/12/15 11:08:00;;;;;;;17.42;11.50;;;9.90;99.90;;;;;;5106842;27;20104;-82
2020/12/15 11:10:25;;;;;;;19.20;10.10;;;9.90;99.90;;;;;;5117316;27;20030;-83
2020/12/15 11:12:51;;;;;;;22.23;11.20;;;9.90;99.90;;;;;;5115326;27;20046;-83
2020/12/15 11:15:16;;;;;;;20.45;12.23;;;9.90;99.90;;;;;;5114022;27;20099;-82
2020/12/15 11:17:42;;;;;;;22.38;10.90;;;9.90;99.90;;;;;;5115803;27;20019;-82
2020/12/15 11:20:08;;;;;;;24.77;12.18;;;9.90;99.90;;;;;;5114179;27;20120;-82
2020/12/15 11:22:34;;;;;;;19.10;11.35;;;9.90;99.90;;;;;;5112521;27;20041;-82
2020/12/15 11:24:59;;;;;;;20.92;11.38;;;9.90;99.90;;;;;;5121623;27;21211;-83
2020/12/15 11:27:25;;;;;;;19.17;11.73;;;9.90;99.90;;;;;;5116947;27;20038;-83
2020/12/15 11:29:50;;;;;;;19.75;12.30;;;9.90;99.90;;;;;;5116974;27;20417;-83
2020/12/15 11:32:16;;;;;;;24.33;13.40;;;9.90;99.90;;;;;;5116385;27;20096;-82
2020/12/15 11:34:42;;;;;;;23.73;12.90;;;9.90;99.90;;;;;;5115467;27;20027;-83
2020/12/15 11:37:09;;;;;;;19.45;11.63;;;9.80;99.90;;;;;;5113496;27;20069;-83
2020/12/15 11:39:37;;;;;;;22.48;12.07;;;9.70;99.90;;;;;;5116156;27;20414;-82
2020/12/15 11:42:10;;;;;;;27.60;12.18;;;9.80;99.90;;;;;;5122172;27;20039;-83
2020/12/15 11:44:36;;;;;;;22.23;12.07;;;9.80;99.90;;;;;;5116362;27;20447;-83
2020/12/15 11:47:03;;;;;;;30.02;13.85;;;9.80;99.90;;;;;;5117384;27;20035;-83
2020/12/15 11:49:29;;;;;;;22.23;12.90;;;9.80;99.90;;;;;;5117303;27;20032;-83
2020/12/15 11:51:56;;;;;;;21.45;13.13;;;9.80;99.90;;;;;;5145518;27;20114;-83
2020/12/15 11:54:23;;;;;;;21.45;12.38;;;9.80;99.90;;;;;;5108985;27;20034;-82
2020/12/15 11:56:52;;;;;;;20.08;12.13;;;9.90;99.90;;;;;;5125395;27;20026;-81
2020/12/15 11:59:19;;;;;;;21.85;12.88;;;9.90;99.90;;;;;;5089018;28;20039;-82
2020/12/15 12:01:45;;;;;;;23.15;13.55;;;10.00;99.90;;;;;;5077597;28;20127;-81
2020/12/15 12:04:12;;;;;;;26.35;14.55;;;10.00;99.90;;;;;;5075200;28;20090;-82
2020/12/15 12:06:38;;;;;;;24.08;14.02;;;10.00;99.90;;;;;;5077215;28;20040;-82
2020/12/15 12:09:04;;;;;;;28.35;16.73;;;9.90;99.90;;;;;;5056124;28;20048;-81
2020/12/15 12:11:30;;;;;;;22.48;14.00;;;9.90;99.90;;;;;;5092800;27;20046;-81
2020/12/15 12:13:55;;;;;;;21.50;13.18;;;9.90;99.90;;;;;;5093194;28;20064;-81
2020/12/15 12:16:21;;;;;;;33.53;17.70;;;9.90;99.90;;;;;;5073507;28;20535;-80
2020/12/15 12:18:47;;;;;;;30.83;15.65;;;10.00;99.90;;;;;;5096699;27;20046;-82
2020/12/15 12:21:13;;;;;;;30.05;16.30;;;9.90;99.90;;;;;;5100586;27;20060;-82
2020/12/15 12:23:40;;;;;;;29.52;14.45;;;9.90;99.90;;;;;;5075887;28;20054;-82
2020/12/15 12:26:05;;;;;;;29.02;18.67;;;9.80;99.90;;;;;;5074705;28;20543;-83
2020/12/15 12:28:34;;;;;;;25.90;14.55;;;9.90;99.90;;;;;;5075489;28;20036;-81
2020/12/15 12:30:59;;;;;;;22.58;13.98;;;9.90;99.90;;;;;;5110239;27;20050;-81
2020/12/15 12:33:25;;;;;;;26.65;15.20;;;9.80;99.90;;;;;;5118108;27;20031;-82
2020/12/15 12:35:54;;;;;;;27.98;14.63;;;9.80;99.90;;;;;;5117246;27;20065;-81
2020/12/15 12:38:22;;;;;;;24.33;14.25;;;9.80;99.90;;;;;;5118889;27;20376;-82
2020/12/15 12:40:48;;;;;;;26.05;15.32;;;9.80;99.90;;;;;;5125765;27;20080;-81
2020/12/15 12:43:14;;;;;;;21.75;14.13;;;9.70;99.90;;;;;;5101140;27;20096;-82
2020/12/15 12:45:40;;;;;;;24.27;15.77;;;9.80;99.90;;;;;;5101345;27;20038;-81